createdAt,value
2023-02-06T00:00:48.726Z,-0.38
2023-02-06T00:03:15.598Z,-0.37
2023-02-06T00:05:42.285Z,-0.45
2023-02-06T00:08:09.360Z,-0.66
2023-02-06T00:10:36.100Z,-0.90
2023-02-06T00:13:02.903Z,-0.66
2023-02-06T00:15:29.635Z,-0.58
2023-02-06T00:17:56.305Z,-0.62
2023-02-06T00:20:22.947Z,-0.31
2023-02-06T00:22:49.590Z,-0.07
2023-02-06T00:25:16.239Z,0.03
2023-02-06T00:27:42.964Z,0.12
2023-02-06T00:30:10.057Z,0.08
2023-02-06T00:32:36.989Z,0.05
2023-02-06T00:35:03.845Z,-0.04
2023-02-06T00:37:30.468Z,-0.11
2023-02-06T00:39:57.191Z,-0.23
2023-02-06T00:42:23.802Z,-0.38
2023-02-06T00:44:50.498Z,-0.47
2023-02-06T00:47:17.161Z,-0.56
2023-02-06T00:49:43.862Z,-0.59
2023-02-06T00:52:10.702Z,-0.79
2023-02-06T00:54:37.385Z,-1.00
2023-02-06T00:57:04.082Z,-1.10
2023-02-06T00:59:30.808Z,-1.02
2023-02-06T01:01:57.753Z,-0.89
2023-02-06T01:04:24.559Z,-0.71
2023-02-06T01:06:51.510Z,-0.49
2023-02-06T01:09:18.352Z,-0.51
2023-02-06T01:11:45.822Z,-0.52
2023-02-06T01:14:12.574Z,-0.70
2023-02-06T01:16:39.179Z,-0.83
2023-02-06T01:19:05.854Z,-0.89
2023-02-06T01:21:32.568Z,-0.71
2023-02-06T01:23:59.452Z,-0.69
2023-02-06T01:26:27.288Z,-0.75
2023-02-06T01:28:54.695Z,-0.76
2023-02-06T01:31:21.341Z,-0.94
2023-02-06T01:33:49.297Z,-0.90
2023-02-06T01:36:17.765Z,-0.97
2023-02-06T01:38:45.063Z,-1.09
2023-02-06T01:41:13.312Z,-0.89
2023-02-06T01:43:43.395Z,-0.76
2023-02-06T01:46:10.212Z,-0.59
2023-02-06T01:48:42.798Z,-0.44
2023-02-06T01:51:15.446Z,-0.44
2023-02-06T01:53:46.489Z,-0.57
2023-02-06T01:56:19.327Z,-0.66
2023-02-06T01:58:51.721Z,-0.77
2023-02-06T02:01:20.170Z,-0.80
2023-02-06T02:03:50.305Z,-0.87
2023-02-06T02:06:21.013Z,-0.92
2023-02-06T02:08:51.830Z,-1.12
2023-02-06T02:11:21.852Z,-1.27
2023-02-06T02:13:51.094Z,-1.40
2023-02-06T02:17:05.452Z,-1.39
2023-02-06T02:20:00.137Z,-1.29
2023-02-06T02:22:40.029Z,-1.18
2023-02-06T02:25:34.178Z,-1.22
2023-02-06T02:28:37.510Z,-1.25
2023-02-06T02:31:13.144Z,-1.46
2023-02-06T02:33:57.966Z,-1.74
2023-02-06T02:36:57.027Z,-1.60
2023-02-06T02:39:44.995Z,-1.47
2023-02-06T02:42:13.763Z,-1.45
2023-02-06T02:45:03.606Z,-1.44
2023-02-06T02:47:33.782Z,-1.53
2023-02-06T02:50:03.149Z,-1.43
2023-02-06T02:52:29.836Z,-1.38
2023-02-06T02:54:56.672Z,-1.65
2023-02-06T02:57:30.144Z,-1.83
2023-02-06T02:59:59.775Z,-1.86
2023-02-06T03:02:31.843Z,-1.68
2023-02-06T03:05:20.675Z,-1.68
2023-02-06T03:07:56.233Z,-1.63
2023-02-06T03:10:34.836Z,-1.58
2023-02-06T03:13:19.645Z,-1.67
2023-02-06T03:16:01.014Z,-2.01
2023-02-06T03:18:50.735Z,-1.86
2023-02-06T03:21:20.926Z,-1.82
2023-02-06T03:23:52.721Z,-1.94
2023-02-06T03:26:23.785Z,-1.98
2023-02-06T03:28:54.082Z,-1.98
2023-02-06T03:31:54.071Z,-1.93
2023-02-06T03:34:29.233Z,-1.59
2023-02-06T03:36:56.178Z,-1.44
2023-02-06T03:39:23.136Z,-1.51
2023-02-06T03:41:51.698Z,-1.64
2023-02-06T03:44:24.729Z,-1.53
2023-02-06T03:46:54.488Z,-1.38
2023-02-06T03:49:25.354Z,-1.35
2023-02-06T03:51:59.624Z,-1.33
2023-02-06T03:54:27.757Z,-1.31
2023-02-06T03:57:01.020Z,-1.33
2023-02-06T03:59:27.886Z,-1.33
2023-02-06T04:02:00.010Z,-1.31
2023-02-06T04:04:34.267Z,-1.43
2023-02-06T04:07:08.751Z,-1.54
2023-02-06T04:09:35.415Z,-1.41
2023-02-06T04:12:02.067Z,-1.39
2023-02-06T04:14:28.743Z,-1.24
2023-02-06T04:16:55.630Z,-1.08
2023-02-06T04:19:22.279Z,-0.95
2023-02-06T04:21:49.119Z,-0.78
2023-02-06T04:24:15.813Z,-0.66
2023-02-06T04:26:42.481Z,-0.63
2023-02-06T04:29:09.133Z,-0.57
2023-02-06T04:31:35.862Z,-0.62
2023-02-06T04:34:02.577Z,-0.57
2023-02-06T04:36:29.286Z,-0.69
2023-02-06T04:38:55.965Z,-0.75
2023-02-06T04:41:22.614Z,-0.88
2023-02-06T04:43:49.314Z,-0.94
2023-02-06T04:46:16.016Z,-1.02
2023-02-06T04:48:42.669Z,-1.13
2023-02-06T04:51:09.488Z,-1.22
2023-02-06T04:53:36.212Z,-1.33
2023-02-06T04:56:08.053Z,-1.41
2023-02-06T04:58:34.939Z,-1.43
2023-02-06T05:01:02.269Z,-1.48
2023-02-06T05:03:29.682Z,-1.77
2023-02-06T05:06:00.106Z,-1.93
2023-02-06T05:08:27.092Z,-1.81
2023-02-06T05:10:53.978Z,-1.75
2023-02-06T05:13:21.111Z,-1.74
2023-02-06T05:15:48.080Z,-1.70
2023-02-06T05:18:15.331Z,-1.58
2023-02-06T05:20:43.323Z,-1.63
2023-02-06T05:23:10.102Z,-1.65
2023-02-06T05:25:37.156Z,-1.68
2023-02-06T05:28:06.653Z,-1.67
2023-02-06T05:30:34.793Z,-1.67
2023-02-06T05:33:01.830Z,-1.67
2023-02-06T05:35:28.852Z,-1.66
2023-02-06T05:37:55.533Z,-1.62
2023-02-06T05:40:22.333Z,-1.65
2023-02-06T05:42:49.127Z,-1.82
2023-02-06T05:45:15.801Z,-1.90
2023-02-06T05:47:42.567Z,-1.81
2023-02-06T05:50:09.561Z,-1.71
2023-02-06T05:52:37.231Z,-1.60
2023-02-06T05:55:04.238Z,-1.53
2023-02-06T05:57:31.036Z,-1.50
2023-02-06T05:59:57.672Z,-1.55
2023-02-06T06:02:24.498Z,-1.57
2023-02-06T06:04:51.307Z,-1.39
2023-02-06T06:07:18.112Z,-1.31
2023-02-06T06:09:44.800Z,-1.22
2023-02-06T06:12:11.522Z,-1.12
2023-02-06T06:14:38.212Z,-1.09
2023-02-06T06:17:04.939Z,-1.19
2023-02-06T06:19:31.687Z,-1.18
2023-02-06T06:21:58.650Z,-1.01
2023-02-06T06:24:26.087Z,-0.91
2023-02-06T06:26:52.819Z,-0.87
2023-02-06T06:29:19.543Z,-0.81
2023-02-06T06:31:46.386Z,-0.76
2023-02-06T06:34:13.142Z,-0.83
2023-02-06T06:36:39.807Z,-0.90
2023-02-06T06:39:06.490Z,-0.82
2023-02-06T06:41:33.270Z,-0.72
2023-02-06T06:44:00.112Z,-0.63
2023-02-06T06:46:26.800Z,-0.58
2023-02-06T06:48:53.760Z,-0.51
2023-02-06T06:51:20.776Z,-0.46
2023-02-06T06:53:47.519Z,-0.41
2023-02-06T06:56:15.076Z,-0.36
2023-02-06T06:58:42.597Z,-0.30
2023-02-06T07:01:09.519Z,-0.35
2023-02-06T07:03:36.852Z,-0.41
2023-02-06T07:06:04.891Z,-0.28
2023-02-06T07:08:35.999Z,-0.23
2023-02-06T07:11:02.661Z,-0.15
2023-02-06T07:13:29.643Z,-0.04
2023-02-06T07:15:56.311Z,-0.18
2023-02-06T07:18:22.924Z,-0.16
2023-02-06T07:20:51.485Z,0.00
2023-02-06T07:23:18.185Z,0.20
2023-02-06T07:25:44.813Z,0.30
2023-02-06T07:28:11.648Z,0.38
2023-02-06T07:30:38.446Z,0.46
2023-02-06T07:33:05.996Z,0.55
2023-02-06T07:35:32.775Z,0.68
2023-02-06T07:37:59.589Z,0.79
2023-02-06T07:40:36.445Z,0.76
2023-02-06T07:43:09.892Z,0.93
2023-02-06T07:45:36.879Z,0.97
2023-02-06T07:48:04.729Z,0.87
2023-02-06T07:50:31.966Z,0.83
2023-02-06T07:52:58.927Z,1.00
2023-02-06T07:55:26.600Z,1.00
2023-02-06T07:57:54.992Z,1.16
2023-02-06T08:00:21.950Z,1.28
2023-02-06T08:02:48.657Z,1.31
2023-02-06T08:05:15.339Z,1.32
2023-02-06T08:07:42.034Z,1.21
2023-02-06T08:10:08.926Z,1.17
2023-02-06T08:12:35.569Z,1.14
2023-02-06T08:15:02.278Z,1.20
2023-02-06T08:17:28.943Z,1.24
2023-02-06T08:19:55.623Z,1.26
2023-02-06T08:22:22.305Z,1.27
2023-02-06T08:24:48.983Z,1.31
2023-02-06T08:27:15.683Z,1.31
2023-02-06T08:29:45.626Z,1.31
2023-02-06T08:32:12.878Z,1.34
2023-02-06T08:34:40.094Z,1.33
2023-02-06T08:37:07.041Z,1.35
2023-02-06T08:39:33.772Z,1.34
2023-02-06T08:42:00.447Z,1.37
2023-02-06T08:44:27.677Z,1.44
2023-02-06T08:47:08.747Z,1.46
2023-02-06T08:49:36.287Z,1.54
2023-02-06T08:52:03.007Z,1.81
2023-02-06T08:54:29.853Z,1.74
2023-02-06T08:56:58.439Z,1.80
2023-02-06T08:59:25.195Z,1.59
2023-02-06T09:01:52.271Z,1.62
2023-02-06T09:04:19.613Z,1.57
2023-02-06T09:06:52.407Z,1.46
2023-02-06T09:09:19.279Z,1.52
2023-02-06T09:11:46.015Z,1.76
2023-02-06T09:14:17.378Z,1.56
2023-02-06T09:16:44.331Z,1.56
2023-02-06T09:19:11.443Z,1.59
2023-02-06T09:21:38.404Z,1.56
2023-02-06T09:24:07.669Z,1.47
2023-02-06T09:26:40.614Z,1.54
2023-02-06T09:29:12.633Z,1.83
2023-02-06T09:31:41.211Z,1.69
2023-02-06T09:34:09.308Z,1.67
2023-02-06T09:36:36.892Z,1.48
2023-02-06T09:39:06.149Z,1.58
2023-02-06T09:41:35.376Z,1.52
2023-02-06T09:44:16.280Z,1.45
2023-02-06T09:47:05.006Z,1.41
2023-02-06T09:49:43.655Z,1.52
2023-02-06T09:52:33.577Z,1.69
2023-02-06T09:55:14.236Z,1.91
2023-02-06T09:57:57.384Z,1.94
2023-02-06T10:00:27.028Z,1.91
2023-02-06T10:02:59.673Z,1.56
2023-02-06T10:05:51.195Z,1.57
2023-02-06T10:08:42.004Z,1.45
2023-02-06T10:11:18.311Z,1.48
2023-02-06T10:13:50.585Z,1.72
2023-02-06T10:16:36.286Z,1.86
2023-02-06T10:19:09.560Z,1.93
2023-02-06T10:21:45.368Z,1.93
2023-02-06T10:24:34.484Z,1.89
2023-02-06T10:27:04.664Z,2.18
2023-02-06T10:29:34.158Z,2.18
2023-02-06T10:32:27.927Z,1.93
2023-02-06T10:34:57.608Z,1.83
2023-02-06T10:37:35.731Z,1.57
2023-02-06T10:40:35.488Z,1.85
2023-02-06T10:43:23.021Z,1.82
2023-02-06T10:46:15.449Z,1.75
2023-02-06T10:48:48.278Z,1.58
2023-02-06T10:51:24.998Z,1.65
2023-02-06T10:53:58.673Z,1.88
2023-02-06T10:56:30.078Z,2.10
2023-02-06T10:59:17.007Z,2.06
2023-02-06T11:01:47.319Z,2.58
2023-02-06T11:04:24.013Z,2.42
2023-02-06T11:06:57.688Z,2.52
2023-02-06T11:09:24.666Z,2.50
2023-02-06T11:11:56.148Z,2.55
2023-02-06T11:14:30.460Z,2.49
2023-02-06T11:16:59.604Z,2.35
2023-02-06T11:19:30.287Z,2.17
2023-02-06T11:22:08.929Z,1.89
2023-02-06T11:24:36.995Z,2.02
2023-02-06T11:27:14.575Z,2.20
2023-02-06T11:29:51.942Z,2.19
2023-02-06T11:32:59.024Z,2.20
2023-02-06T11:35:39.116Z,2.59
2023-02-06T11:38:16.831Z,2.67
2023-02-06T11:40:53.318Z,2.55
2023-02-06T11:43:26.705Z,2.19
2023-02-06T11:46:16.824Z,2.22
2023-02-06T11:48:43.522Z,2.52
2023-02-06T11:51:11.771Z,2.89
2023-02-06T11:53:38.765Z,2.98
2023-02-06T11:56:20.729Z,3.06
2023-02-06T11:59:00.745Z,2.75
2023-02-06T12:01:27.452Z,2.83
2023-02-06T12:03:58.855Z,2.91
2023-02-06T12:06:40.228Z,3.05
2023-02-06T12:09:12.628Z,2.86
2023-02-06T12:11:57.520Z,2.93
2023-02-06T12:14:39.738Z,3.06
2023-02-06T12:17:21.155Z,3.01
2023-02-06T12:19:57.051Z,3.00
2023-02-06T12:22:24.704Z,2.93
2023-02-06T12:24:55.502Z,2.88
2023-02-06T12:27:30.665Z,2.73
2023-02-06T12:30:26.688Z,2.90
2023-02-06T12:33:03.361Z,2.96
2023-02-06T12:35:50.364Z,3.06
2023-02-06T12:38:31.120Z,3.21
2023-02-06T12:41:16.451Z,3.37
2023-02-06T12:43:45.445Z,3.34
2023-02-06T12:46:17.539Z,3.35
2023-02-06T12:48:58.824Z,3.48
2023-02-06T12:52:04.781Z,3.55
2023-02-06T12:54:47.921Z,3.65
2023-02-06T12:57:19.877Z,3.61
2023-02-06T12:59:57.863Z,3.83
2023-02-06T13:03:14.781Z,3.88
2023-02-06T13:05:46.952Z,3.83
2023-02-06T13:08:18.378Z,3.66
2023-02-06T13:10:45.453Z,3.72
2023-02-06T13:13:28.347Z,3.74
2023-02-06T13:15:57.526Z,3.85
2023-02-06T13:18:52.431Z,3.96
2023-02-06T13:21:32.451Z,3.84
2023-02-06T13:24:02.052Z,3.88
2023-02-06T13:26:51.654Z,3.87
2023-02-06T13:29:34.922Z,3.95
2023-02-06T13:32:31.524Z,4.08
2023-02-06T13:35:13.280Z,3.99
2023-02-06T13:37:42.987Z,4.09
2023-02-06T13:40:21.289Z,4.06
2023-02-06T13:43:13.801Z,4.05
2023-02-06T13:45:58.535Z,4.13
2023-02-06T13:48:37.374Z,4.07
2023-02-06T13:51:28.962Z,4.01
2023-02-06T13:54:14.325Z,3.90
2023-02-06T13:56:52.082Z,4.00
2023-02-06T13:59:24.542Z,3.89
2023-02-06T14:01:52.077Z,3.74
2023-02-06T14:04:26.456Z,3.65
2023-02-06T14:07:02.038Z,3.59
2023-02-06T14:09:36.057Z,3.46
2023-02-06T14:12:29.294Z,3.44
2023-02-06T14:15:01.972Z,3.49
2023-02-06T14:17:46.469Z,3.30
2023-02-06T14:20:18.768Z,3.29
2023-02-06T14:22:51.492Z,3.22
2023-02-06T14:25:55.719Z,3.29
2023-02-06T14:28:47.129Z,3.39
2023-02-06T14:31:33.287Z,3.41
2023-02-06T14:34:35.250Z,3.44
2023-02-06T14:37:20.592Z,3.52
2023-02-06T14:39:52.136Z,3.56
2023-02-06T14:42:22.345Z,3.44
2023-02-06T14:44:57.104Z,3.47
2023-02-06T14:47:32.455Z,3.47
2023-02-06T14:50:01.416Z,3.45
2023-02-06T14:52:31.275Z,3.42
2023-02-06T14:54:57.939Z,3.38
2023-02-06T14:57:28.450Z,3.39
2023-02-06T14:59:58.112Z,3.36
2023-02-06T15:02:36.685Z,3.26
2023-02-06T15:05:04.958Z,3.27
2023-02-06T15:07:37.332Z,3.51
2023-02-06T15:10:15.198Z,3.58
2023-02-06T15:12:42.333Z,3.50
2023-02-06T15:15:25.102Z,3.31
2023-02-06T15:18:04.590Z,3.44
2023-02-06T15:20:43.163Z,3.56
2023-02-06T15:23:38.227Z,3.28
2023-02-06T15:26:38.675Z,3.07
2023-02-06T15:29:12.187Z,2.89
2023-02-06T15:31:39.141Z,2.75
2023-02-06T15:34:05.888Z,2.73
2023-02-06T15:36:38.176Z,2.75
2023-02-06T15:39:07.654Z,2.74
2023-02-06T15:41:40.209Z,2.75
2023-02-06T15:44:12.236Z,2.76
2023-02-06T15:46:39.776Z,2.73
2023-02-06T15:49:11.034Z,2.67
2023-02-06T15:51:52.047Z,2.67
2023-02-06T15:54:22.389Z,2.64
2023-02-06T15:56:56.074Z,2.59
2023-02-06T15:59:25.364Z,2.59
2023-02-06T16:01:55.302Z,2.59
2023-02-06T16:04:28.005Z,2.55
2023-02-06T16:07:16.167Z,2.61
2023-02-06T16:09:51.217Z,2.56
2023-02-06T16:12:18.404Z,2.57
2023-02-06T16:15:26.341Z,2.51
2023-02-06T16:17:53.023Z,2.48
2023-02-06T16:20:37.246Z,2.63
2023-02-06T16:23:46.707Z,2.65
2023-02-06T16:26:13.318Z,2.56
2023-02-06T16:28:49.454Z,2.46
2023-02-06T16:31:16.306Z,2.38
2023-02-06T16:33:47.426Z,2.31
2023-02-06T16:36:16.152Z,2.30
2023-02-06T16:38:48.356Z,2.34
2023-02-06T16:41:23.788Z,2.40
2023-02-06T16:43:51.349Z,2.52
2023-02-06T16:46:18.274Z,2.48
2023-02-06T16:48:44.933Z,2.52
2023-02-06T16:51:17.003Z,2.46
2023-02-06T16:53:44.390Z,2.32
2023-02-06T16:56:12.959Z,2.20
2023-02-06T16:58:39.631Z,2.22
2023-02-06T17:01:11.857Z,2.22
2023-02-06T17:03:39.098Z,2.25
2023-02-06T17:06:06.579Z,2.30
2023-02-06T17:08:39.474Z,2.24
2023-02-06T17:11:06.173Z,2.10
2023-02-06T17:13:32.842Z,2.18
2023-02-06T17:15:59.909Z,2.08
2023-02-06T17:18:26.667Z,1.99
2023-02-06T17:20:54.005Z,2.00
2023-02-06T17:23:20.794Z,2.02
2023-02-06T17:25:47.576Z,2.10
2023-02-06T17:28:17.441Z,1.97
2023-02-06T17:30:44.958Z,1.97
2023-02-06T17:33:11.716Z,2.01
2023-02-06T17:35:38.845Z,2.03
2023-02-06T17:38:07.780Z,1.93
2023-02-06T17:40:35.730Z,1.96
2023-02-06T17:43:04.725Z,1.92
2023-02-06T17:45:31.841Z,2.08
2023-02-06T17:47:58.618Z,1.94
2023-02-06T17:50:27.023Z,1.91
2023-02-06T17:52:55.719Z,1.90
2023-02-06T17:55:23.994Z,2.07
2023-02-06T17:57:50.770Z,2.10
2023-02-06T18:00:20.306Z,2.12
2023-02-06T18:02:47.014Z,2.02
2023-02-06T18:05:13.776Z,1.97
2023-02-06T18:07:40.975Z,2.15
2023-02-06T18:10:09.560Z,2.36
2023-02-06T18:12:36.331Z,2.31
2023-02-06T18:15:04.606Z,2.28
2023-02-06T18:17:31.424Z,2.38
2023-02-06T18:19:58.194Z,2.23
2023-02-06T18:22:24.868Z,2.10
2023-02-06T18:24:51.533Z,2.00
2023-02-06T18:27:20.426Z,1.99
2023-02-06T18:29:50.321Z,2.08
2023-02-06T18:32:18.846Z,2.06
2023-02-06T18:34:46.153Z,2.07
2023-02-06T18:37:12.970Z,2.03
2023-02-06T18:39:39.673Z,2.05
2023-02-06T18:42:24.818Z,2.01
2023-02-06T18:44:51.553Z,1.89
2023-02-06T18:47:19.772Z,1.99
2023-02-06T18:49:47.097Z,1.95
2023-02-06T18:52:14.317Z,1.97
2023-02-06T18:54:41.221Z,1.99
2023-02-06T18:57:08.285Z,1.95
2023-02-06T18:59:35.579Z,1.81
2023-02-06T19:02:02.673Z,1.84
2023-02-06T19:04:29.772Z,2.03
2023-02-06T19:06:56.695Z,2.02
2023-02-06T19:09:23.489Z,2.03
2023-02-06T19:11:50.268Z,1.96
2023-02-06T19:14:22.530Z,1.98
2023-02-06T19:16:51.149Z,1.99
2023-02-06T19:19:18.599Z,1.96
2023-02-06T19:21:45.527Z,1.90
2023-02-06T19:24:14.302Z,1.85
2023-02-06T19:26:41.946Z,1.97
2023-02-06T19:29:09.068Z,2.02
2023-02-06T19:31:39.088Z,1.92
2023-02-06T19:34:06.703Z,1.88
2023-02-06T19:36:33.547Z,1.97
2023-02-06T19:39:03.523Z,2.02
2023-02-06T19:41:32.795Z,2.08
2023-02-06T19:44:04.016Z,2.03
2023-02-06T19:46:31.372Z,1.87
2023-02-06T19:48:58.052Z,1.82
2023-02-06T19:51:31.439Z,1.72
2023-02-06T19:53:59.241Z,1.73
2023-02-06T19:56:34.586Z,1.89
2023-02-06T19:59:03.871Z,2.01
2023-02-06T20:01:31.294Z,2.04
2023-02-06T20:04:00.031Z,1.93
2023-02-06T20:06:28.243Z,1.98
2023-02-06T20:08:57.072Z,1.96
2023-02-06T20:11:24.059Z,2.06
2023-02-06T20:13:55.611Z,1.84
2023-02-06T20:16:26.177Z,1.92
2023-02-06T20:18:54.534Z,1.83
2023-02-06T20:21:28.072Z,1.81
2023-02-06T20:23:56.466Z,1.99
2023-02-06T20:26:25.658Z,1.95
2023-02-06T20:28:52.813Z,1.97
2023-02-06T20:31:20.413Z,1.82
2023-02-06T20:33:47.884Z,1.42
2023-02-06T20:36:20.671Z,1.60
2023-02-06T20:38:49.601Z,1.52
2023-02-06T20:41:17.239Z,1.41
2023-02-06T20:43:44.141Z,1.22
2023-02-06T20:46:16.963Z,1.17
2023-02-06T20:48:53.583Z,1.12
2023-02-06T20:51:20.448Z,1.20
2023-02-06T20:53:47.143Z,1.09
2023-02-06T20:56:17.067Z,0.96
2023-02-06T20:58:44.462Z,0.81
2023-02-06T21:01:27.324Z,0.67
2023-02-06T21:03:59.685Z,0.72
2023-02-06T21:06:26.876Z,0.59
2023-02-06T21:08:57.419Z,0.52
2023-02-06T21:11:24.256Z,0.52
2023-02-06T21:13:50.944Z,0.49
2023-02-06T21:16:17.609Z,0.53
2023-02-06T21:18:44.291Z,0.51
2023-02-06T21:21:14.300Z,0.54
2023-02-06T21:23:42.515Z,0.58
2023-02-06T21:26:11.890Z,0.64
2023-02-06T21:28:39.421Z,0.62
2023-02-06T21:31:18.465Z,0.69
2023-02-06T21:33:47.533Z,0.67
2023-02-06T21:36:14.330Z,0.66
2023-02-06T21:38:42.035Z,0.65
2023-02-06T21:41:15.777Z,0.57
2023-02-06T21:43:42.790Z,0.50
2023-02-06T21:46:10.785Z,0.43
2023-02-06T21:48:38.423Z,0.35
2023-02-06T21:51:10.880Z,0.25
2023-02-06T21:53:38.512Z,0.29
2023-02-06T21:56:16.840Z,0.26
2023-02-06T21:58:44.483Z,0.17
2023-02-06T22:01:20.663Z,0.00
2023-02-06T22:03:47.828Z,-0.06
2023-02-06T22:06:15.054Z,0.01
2023-02-06T22:08:48.007Z,0.06
2023-02-06T22:11:26.352Z,-0.01
2023-02-06T22:13:56.744Z,0.01
2023-02-06T22:16:24.162Z,0.02
2023-02-06T22:18:51.294Z,0.00
2023-02-06T22:21:20.809Z,-0.03
2023-02-06T22:23:50.892Z,-0.10
2023-02-06T22:26:19.761Z,-0.11
2023-02-06T22:28:46.764Z,-0.28
2023-02-06T22:31:15.109Z,-0.42
2023-02-06T22:33:42.741Z,-0.40
2023-02-06T22:36:12.975Z,-0.27
2023-02-06T22:38:40.672Z,-0.23
2023-02-06T22:41:10.680Z,-0.18
2023-02-06T22:43:38.968Z,0.04
2023-02-06T22:46:06.632Z,-0.02
2023-02-06T22:48:33.737Z,-0.27
2023-02-06T22:51:10.272Z,-0.32
2023-02-06T22:53:38.205Z,-0.27
2023-02-06T22:56:26.684Z,-0.38
2023-02-06T22:58:55.547Z,-0.42
2023-02-06T23:01:24.621Z,-0.40
2023-02-06T23:03:53.046Z,-0.38
2023-02-06T23:06:20.214Z,-0.41
2023-02-06T23:08:47.455Z,-0.43
2023-02-06T23:11:14.167Z,-0.18
2023-02-06T23:13:41.857Z,-0.31
2023-02-06T23:16:09.689Z,-0.30
2023-02-06T23:18:36.994Z,-0.41
2023-02-06T23:21:10.819Z,-0.40
2023-02-06T23:23:39.174Z,-0.45
2023-02-06T23:26:12.486Z,-0.50
2023-02-06T23:28:39.926Z,-0.52
2023-02-06T23:31:07.784Z,-0.61
2023-02-06T23:33:34.776Z,-0.60
2023-02-06T23:36:05.403Z,-0.45
2023-02-06T23:38:32.404Z,-0.47
2023-02-06T23:41:14.055Z,-0.40
2023-02-06T23:43:41.117Z,-0.25
2023-02-06T23:46:12.141Z,-0.36
2023-02-06T23:48:39.803Z,-0.35
2023-02-06T23:51:26.209Z,-0.33
2023-02-06T23:53:53.393Z,-0.38
2023-02-06T23:56:26.042Z,-0.47
2023-02-06T23:58:54.365Z,-0.45
